Time;durP1;ratioP1;P1;durP2;ratioP2;P2;SDS_P1;SDS_P2;PMS_P1;PMS_P2;Temp;Humidity;BMP_temperature;BMP_pressure;BME280_temperature;BME280_humidity;BME280_pressure;Samples;Min_cycle;Max_cycle;Signal;HPM_P1;HPM_P2
2023/11/13 00:03:02;;;;;;;8.40;5.00;;;;;;;8.20;90.62;99705.73;176512;1270;58768;-84
2023/11/13 00:07:06;;;;;;;5.50;4.60;;;;;;;8.18;90.32;99714.80;177039;1270;46145;-83
2023/11/13 00:11:09;;;;;;;7.60;5.80;;;;;;;8.13;90.26;99715.48;177167;1267;46085;-84
2023/11/13 00:15:13;;;;;;;8.50;5.00;;;;;;;8.07;89.80;99709.23;177048;1267;44749;-83
2023/11/13 00:19:17;;;;;;;7.90;4.80;;;;;;;8.08;89.43;99711.27;176917;1270;48849;-84
2023/11/13 00:23:20;;;;;;;7.20;5.00;;;;;;;8.09;87.81;99709.41;177330;1267;58602;-84
2023/11/13 00:27:24;;;;;;;6.80;4.70;;;;;;;8.12;87.51;99708.29;176557;1270;46399;-83
2023/11/13 00:31:28;;;;;;;7.20;5.40;;;;;;;8.12;87.26;99712.35;177928;1267;44191;-83
2023/11/13 00:35:31;;;;;;;8.00;4.10;;;;;;;8.12;87.26;99710.56;177284;1267;46625;-84
2023/11/13 00:39:35;;;;;;;6.30;4.80;;;;;;;8.08;87.39;99706.52;177116;1267;46126;-85
2023/11/13 00:43:39;;;;;;;6.50;4.50;;;;;;;8.01;86.57;99709.70;177423;1267;59962;-84
2023/11/13 00:47:42;;;;;;;8.30;5.30;;;;;;;7.98;86.61;99710.30;176866;1268;44033;-84
2023/11/13 00:51:45;;;;;;;6.10;5.00;;;;;;;7.95;86.79;99714.45;176592;1268;163405;-83
2023/11/13 00:55:48;;;;;;;5.00;4.40;;;;;;;7.95;86.84;99719.71;177245;1267;46018;-85
2023/11/13 00:59:53;;;;;;;5.80;4.60;;;;;;;7.96;86.61;99718.10;177315;1267;46208;-84
2023/11/13 01:03:56;;;;;;;6.90;5.30;;;;;;;7.93;86.93;99723.80;176926;1267;57640;-84
2023/11/13 01:08:01;;;;;;;5.10;4.20;;;;;;;7.89;86.50;99724.48;177115;1270;46258;-85
2023/11/13 01:12:05;;;;;;;11.10;5.00;;;;;;;7.85;86.81;99722.27;177511;1267;46118;-85
2023/11/13 01:16:08;;;;;;;16.20;5.10;;;;;;;7.85;87.46;99733.23;177605;1267;46062;-83
2023/11/13 01:20:13;;;;;;;6.40;4.80;;;;;;;7.83;87.47;99740.42;177481;1267;46111;-84
2023/11/13 01:24:16;;;;;;;4.90;3.60;;;;;;;7.84;87.67;99743.34;176822;1267;59356;-84
2023/11/13 01:28:20;;;;;;;5.30;4.40;;;;;;;7.85;87.37;99744.14;177309;1267;45981;-85
2023/11/13 01:32:23;;;;;;;4.80;4.30;;;;;;;7.85;86.78;99744.52;176768;1270;46178;-84
2023/11/13 01:36:26;;;;;;;9.10;4.30;;;;;;;7.89;87.10;99740.75;177177;1267;46067;-84
2023/11/13 01:40:31;;;;;;;4.30;3.40;;;;;;;7.88;86.86;99739.76;178011;1267;45984;-82
2023/11/13 01:44:34;;;;;;;6.60;5.20;;;;;;;7.91;86.97;99742.18;177720;1267;57958;-83
2023/11/13 01:48:38;;;;;;;4.90;4.00;;;;;;;7.92;86.61;99738.70;178173;1267;44313;-83
2023/11/13 01:52:42;;;;;;;5.40;4.30;;;;;;;7.90;86.39;99732.84;177798;1266;44202;-84
2023/11/13 01:56:47;;;;;;;4.20;3.10;;;;;;;7.93;86.91;99726.45;177090;1267;46134;-84
2023/11/13 02:00:50;;;;;;;4.50;3.50;;;;;;;7.94;87.36;99722.30;177588;1267;46051;-84
2023/11/13 02:04:54;;;;;;;4.60;4.00;;;;;;;7.99;87.78;99716.77;177328;1266;57928;-84
2023/11/13 02:08:57;;;;;;;6.80;4.50;;;;;;;8.01;88.28;99721.41;178216;1265;46183;-82
2023/11/13 02:13:04;;;;;;;4.70;3.20;;;;;;;7.99;89.13;99719.77;177661;1267;46024;-84
2023/11/13 02:17:09;;;;;;;4.80;4.00;;;;;;;8.00;89.84;99712.79;177348;1266;46008;-84
2023/11/13 02:21:12;;;;;;;7.10;4.00;;;;;;;7.97;90.34;99712.71;177685;1267;45986;-84
2023/11/13 02:25:21;;;;;;;4.30;3.80;;;;;;;7.94;90.83;99704.97;177007;1266;58295;-84
2023/11/13 02:29:24;;;;;;;4.60;3.70;;;;;;;7.94;90.76;99701.84;177198;1267;45983;-83
2023/11/13 02:33:28;;;;;;;5.40;4.30;;;;;;;7.95;90.61;99699.80;176882;1267;45978;-85
2023/11/13 02:37:31;;;;;;;4.50;3.30;;;;;;;7.99;91.00;99706.39;177820;1267;46135;-85
2023/11/13 02:41:34;;;;;;;9.50;5.10;;;;;;;8.01;90.49;99700.71;177003;1267;46202;-83
2023/11/13 02:45:37;;;;;;;5.20;3.80;;;;;;;8.03;90.49;99700.94;177763;1266;59830;-84
2023/11/13 02:49:40;;;;;;;6.30;3.50;;;;;;;7.99;90.21;99694.37;177316;1266;44162;-84
2023/11/13 02:53:43;;;;;;;4.50;3.20;;;;;;;7.93;90.80;99691.67;177159;1268;46465;-84
2023/11/13 02:57:48;;;;;;;5.00;3.90;;;;;;;7.93;91.39;99695.20;178308;1267;44071;-84
2023/11/13 03:01:51;;;;;;;5.20;3.90;;;;;;;7.93;91.47;99699.46;178010;1267;44087;-85
2023/11/13 03:05:54;;;;;;;7.10;4.30;;;;;;;7.89;90.78;99700.98;177137;1267;59576;-84
2023/11/13 03:09:58;;;;;;;5.70;3.10;;;;;;;7.87;90.53;99696.73;176829;1267;46057;-83
2023/11/13 03:14:02;;;;;;;3.80;3.40;;;;;;;7.84;90.74;99689.88;177271;1267;46158;-85
2023/11/13 03:18:05;;;;;;;5.10;3.90;;;;;;;7.81;90.88;99679.22;177615;1267;46019;-84
2023/11/13 03:22:08;;;;;;;6.30;3.70;;;;;;;7.78;91.50;99685.77;177095;1266;44114;-83
2023/11/13 03:26:12;;;;;;;9.90;4.10;;;;;;;7.76;91.62;99691.40;177294;1266;56924;-84
2023/11/13 03:30:15;;;;;;;6.00;5.40;;;;;;;7.77;91.80;99695.07;176679;1266;46117;-82
2023/11/13 03:34:18;;;;;;;4.20;3.80;;;;;;;7.79;92.18;99711.34;177566;1267;48371;-83
2023/11/13 03:38:22;;;;;;;7.00;4.90;;;;;;;7.81;92.46;99712.53;177664;1267;46123;-84
2023/11/13 03:42:25;;;;;;;6.90;4.00;;;;;;;7.83;92.73;99712.88;177710;1267;46134;-85
2023/11/13 03:46:28;;;;;;;4.00;3.70;;;;;;;7.84;92.80;99718.46;178229;1267;59592;-83
2023/11/13 03:50:32;;;;;;;5.90;5.20;;;;;;;7.83;93.26;99724.95;178582;1267;46059;-83
2023/11/13 03:54:35;;;;;;;13.80;6.70;;;;;;;7.85;93.71;99736.02;177354;1265;46059;-83
2023/11/13 03:58:38;;;;;;;7.10;6.40;;;;;;;7.88;93.78;99738.30;178146;1267;45879;-85
2023/11/13 04:02:42;;;;;;;8.70;4.70;;;;;;;7.87;93.37;99723.05;176568;1267;46184;-84
2023/11/13 04:06:45;;;;;;;6.00;4.90;;;;;;;7.80;92.94;99717.00;178465;1267;58584;-85
2023/11/13 04:10:49;;;;;;;6.00;5.00;;;;;;;7.76;93.36;99720.16;178183;1267;46046;-84
2023/11/13 04:14:52;;;;;;;6.40;4.30;;;;;;;7.78;93.18;99723.01;177522;1267;46140;-83
2023/11/13 04:18:55;;;;;;;5.80;5.30;;;;;;;7.76;92.18;99720.19;177421;1267;46148;-84
2023/11/13 04:23:00;;;;;;;7.30;4.00;;;;;;;7.75;92.06;99719.17;177470;1267;46021;-84
2023/11/13 04:27:03;;;;;;;5.60;4.40;;;;;;;7.71;92.12;99726.74;177734;1267;59948;-84
2023/11/13 04:31:08;;;;;;;9.30;5.60;;;;;;;7.69;91.93;99730.27;178945;1267;44132;-84
2023/11/13 04:35:13;;;;;;;8.50;6.00;;;;;;;7.70;92.27;99731.23;177813;1267;46032;-85
2023/11/13 04:39:16;;;;;;;5.50;4.90;;;;;;;7.71;92.31;99727.61;176767;1266;46101;-84
2023/11/13 04:43:19;;;;;;;8.00;4.10;;;;;;;7.70;91.94;99725.79;177871;1265;46196;-84
2023/11/13 04:47:22;;;;;;;7.70;4.30;;;;;;;7.69;92.10;99727.45;177181;1267;57730;-83
2023/11/13 04:51:25;;;;;;;4.20;3.80;;;;;;;7.68;91.93;99729.59;176624;1267;46097;-85
2023/11/13 04:55:30;;;;;;;5.40;4.90;;;;;;;7.68;91.85;99730.17;177288;1267;46160;-85
2023/11/13 04:59:35;;;;;;;4.50;3.30;;;;;;;7.68;91.90;99731.90;177496;1269;46126;-85
2023/11/13 05:03:39;;;;;;;5.40;4.20;;;;;;;7.67;91.71;99736.20;176804;1267;46417;-83
2023/11/13 05:07:43;;;;;;;3.30;2.90;;;;;;;7.68;92.01;99738.83;177361;1267;58284;-85
2023/11/13 05:11:46;;;;;;;7.20;4.10;;;;;;;7.68;91.94;99738.11;178119;1266;46204;-84
2023/11/13 05:15:50;;;;;;;4.80;3.50;;;;;;;7.69;91.30;99744.17;177039;1267;46481;-84
2023/11/13 05:19:53;;;;;;;5.70;3.00;;;;;;;7.66;90.65;99744.61;177475;1267;46029;-83
2023/11/13 05:23:59;;;;;;;4.00;3.40;;;;;;;7.55;90.02;99743.85;177010;1267;46049;-85
2023/11/13 05:28:06;;;;;;;6.80;3.30;;;;;;;7.46;90.19;99741.05;177582;1267;59750;-85
2023/11/13 05:32:10;;;;;;;6.10;3.30;;;;;;;7.39;90.98;99748.44;177794;1267;46007;-84
2023/11/13 05:36:13;;;;;;;3.40;2.70;;;;;;;7.32;90.81;99752.69;177058;1265;46180;-83
2023/11/13 05:40:18;;;;;;;3.00;2.70;;;;;;;7.27;91.40;99756.59;177316;1267;44675;-83
2023/11/13 05:44:22;;;;;;;2.90;2.60;;;;;;;7.24;91.01;99751.84;177114;1267;46078;-85
2023/11/13 05:48:27;;;;;;;7.80;3.60;;;;;;;7.22;90.74;99751.83;178258;1267;59563;-84
2023/11/13 05:52:31;;;;;;;;;;;;;;;7.20;90.58;99756.73;177204;1267;46172;-84
2023/11/13 05:56:34;;;;;;;6.00;4.50;;;;;;;7.21;90.90;99760.91;177284;1267;45195;-85
2023/11/13 06:00:38;;;;;;;5.00;3.70;;;;;;;7.18;90.52;99758.28;176878;1268;46049;-83
2023/11/13 06:04:44;;;;;;;4.70;3.60;;;;;;;7.18;91.28;99756.52;176967;1267;44248;-84
2023/11/13 06:08:47;;;;;;;4.80;3.50;;;;;;;7.20;91.49;99761.84;177271;1267;57099;-82
2023/11/13 06:12:51;;;;;;;6.00;3.70;;;;;;;7.23;91.71;99770.81;177760;1267;46017;-83
2023/11/13 06:16:54;;;;;;;4.70;4.30;;;;;;;7.23;91.64;99769.23;178717;1267;48827;-84
2023/11/13 06:21:01;;;;;;;5.20;3.90;;;;;;;7.21;91.76;99770.40;177849;1266;46436;-84
2023/11/13 06:25:05;;;;;;;5.20;3.50;;;;;;;7.23;92.55;99777.34;177968;1267;45993;-83
2023/11/13 06:29:11;;;;;;;4.30;3.10;;;;;;;7.23;92.16;99781.20;178414;1267;57981;-86
2023/11/13 06:33:14;;;;;;;4.10;3.10;;;;;;;7.27;92.85;99784.61;177559;1267;44611;-85
2023/11/13 06:37:17;;;;;;;8.30;4.10;;;;;;;7.31;91.89;99789.66;177339;1267;46129;-86
2023/11/13 06:41:20;;;;;;;5.40;4.30;;;;;;;7.34;92.28;99790.98;177458;1268;45431;-84
2023/11/13 06:45:24;;;;;;;3.40;3.00;;;;;;;7.36;91.73;99791.34;177519;1267;46148;-84
2023/11/13 06:49:27;;;;;;;3.30;3.10;;;;;;;7.42;92.85;99791.61;177797;1267;58359;-85
2023/11/13 06:53:31;;;;;;;3.30;2.80;;;;;;;7.47;91.78;99793.91;177549;1267;46040;-86
2023/11/13 06:57:34;;;;;;;4.70;3.50;;;;;;;7.51;91.19;99798.70;177271;1270;46124;-85
2023/11/13 07:01:40;;;;;;;6.10;3.50;;;;;;;7.55;90.93;99802.21;177558;1267;46124;-84
2023/11/13 07:05:46;;;;;;;3.00;2.80;;;;;;;7.58;90.23;99799.56;177509;1267;46136;-82
2023/11/13 07:09:49;;;;;;;14.70;3.60;;;;;;;7.61;89.95;99801.48;178215;1267;58299;-85
2023/11/13 07:13:53;;;;;;;3.80;3.30;;;;;;;7.68;90.20;99799.02;176879;1267;46835;-85
2023/11/13 07:17:57;;;;;;;4.60;2.90;;;;;;;7.73;89.37;99803.70;176782;1267;46258;-84
2023/11/13 07:22:01;;;;;;;5.90;4.00;;;;;;;7.79;88.95;99804.63;176516;1267;46042;-85
2023/11/13 07:26:05;;;;;;;4.30;3.20;;;;;;;7.81;87.91;99801.52;176814;1267;45953;-85
2023/11/13 07:30:08;;;;;;;4.50;4.00;;;;;;;7.85;88.22;99804.36;176734;1267;59660;-84
2023/11/13 07:34:12;;;;;;;5.10;3.80;;;;;;;7.90;87.60;99802.25;177109;1267;46110;-85
2023/11/13 07:38:15;;;;;;;6.00;4.70;;;;;;;7.94;86.94;99794.69;177308;1268;46010;-84
2023/11/13 07:42:19;;;;;;;5.70;4.40;;;;;;;8.01;85.57;99785.85;177809;1267;44748;-84
2023/11/13 07:46:22;;;;;;;4.40;4.00;;;;;;;7.98;85.47;99777.44;178690;1267;44268;-84
2023/11/13 07:50:27;;;;;;;5.10;3.50;;;;;;;8.04;84.64;99773.55;177469;1267;60240;-83
2023/11/13 07:54:31;;;;;;;7.40;4.90;;;;;;;8.12;84.87;99782.32;177627;1267;46174;-83
2023/11/13 07:58:47;;;;;;;4.30;3.80;;;;;;;8.22;85.47;99784.23;177520;1267;46147;-82
2023/11/13 08:02:51;;;;;;;4.20;3.50;;;;;;;8.30;85.37;99778.80;178489;1267;46257;-83
2023/11/13 08:06:54;;;;;;;4.00;2.60;;;;;;;8.39;85.25;99779.11;178213;1265;46016;-84
2023/11/13 08:10:57;;;;;;;3.50;3.00;;;;;;;8.50;86.05;99776.29;177901;1265;59598;-82
2023/11/13 08:15:00;;;;;;;4.00;3.60;;;;;;;8.56;84.19;99771.77;177787;1267;46208;-84
2023/11/13 08:19:04;;;;;;;4.30;3.10;;;;;;;8.65;83.99;99766.61;177330;1266;46056;-83
2023/11/13 08:23:10;;;;;;;4.20;3.70;;;;;;;8.72;83.45;99772.25;178273;1265;45992;-82
2023/11/13 08:27:15;;;;;;;5.40;4.30;;;;;;;8.84;84.07;99783.15;178117;1266;44082;-84
2023/11/13 08:31:20;;;;;;;9.00;3.30;;;;;;;8.91;82.38;99782.20;177070;1268;59684;-84
2023/11/13 08:35:24;;;;;;;4.80;4.00;;;;;;;8.94;81.89;99779.27;177601;1267;46235;-84
2023/11/13 08:40:17;;;;;;;4.50;3.60;;;;;;;9.01;82.38;99778.73;176754;1265;46017;-80
2023/11/13 08:44:24;;;;;;;5.90;3.90;;;;;;;9.14;83.77;99769.30;178272;1265;46059;-82
2023/11/13 08:48:28;;;;;;;8.20;3.20;;;;;;;9.22;80.97;99759.28;177946;1267;44239;-83
2023/11/13 08:52:31;;;;;;;6.70;4.20;;;;;;;9.22;80.83;99757.52;180333;1267;59386;-82
2023/11/13 08:56:34;;;;;;;9.80;7.80;;;;;;;9.27;79.99;99758.47;177516;1265;47328;-82
2023/11/13 09:00:44;;;;;;;7.30;5.00;;;;;;;9.36;78.74;99769.30;177900;1265;46139;-81
2023/11/13 09:04:47;;;;;;;8.40;4.60;;;;;;;9.48;78.33;99778.70;178822;1267;46208;-82
2023/11/13 09:08:53;;;;;;;6.70;2.90;;;;;;;9.64;78.14;99782.89;178036;1267;46115;-81
2023/11/13 09:13:00;;;;;;;4.40;2.20;;;;;;;9.74;76.97;99788.00;178658;1267;59343;-80
2023/11/13 09:17:12;;;;;;;4.80;3.80;;;;;;;9.82;76.03;99787.14;177522;1269;46045;-80
2023/11/13 09:21:20;;;;;;;6.20;3.50;;;;;;;9.92;77.04;99784.16;177262;1265;46016;-80
2023/11/13 09:25:26;;;;;;;6.90;3.40;;;;;;;9.97;77.18;99789.16;177580;1267;46181;-80
2023/11/13 09:29:29;;;;;;;6.50;4.70;;;;;;;10.10;76.41;99787.00;179459;1267;44114;-81
2023/11/13 09:33:34;;;;;;;6.10;3.90;;;;;;;10.28;76.67;99791.86;177770;1265;59475;-80
2023/11/13 09:37:40;;;;;;;7.30;4.60;;;;;;;10.40;75.59;99789.21;180281;1266;46240;-82
2023/11/13 09:41:50;;;;;;;6.40;5.00;;;;;;;10.48;73.44;99791.02;178080;1266;46027;-82
2023/11/13 09:45:56;;;;;;;11.70;4.70;;;;;;;10.62;74.33;99787.95;179655;1267;44851;-80
2023/11/13 09:50:04;;;;;;;5.10;3.90;;;;;;;10.69;74.12;99785.41;180132;1267;44067;-80
2023/11/13 09:54:08;;;;;;;5.70;4.00;;;;;;;10.70;72.67;99787.45;180056;1265;57689;-81
2023/11/13 09:58:12;;;;;;;5.90;4.40;;;;;;;10.66;73.26;99770.98;178173;1268;46106;-80
2023/11/13 10:02:18;;;;;;;7.40;5.80;;;;;;;10.58;72.88;99771.09;178871;1265;44085;-80
2023/11/13 10:06:22;;;;;;;9.10;5.80;;;;;;;10.52;72.46;99754.25;179372;1267;44084;-80
2023/11/13 10:10:30;;;;;;;13.60;6.90;;;;;;;10.53;73.29;99741.46;179420;1267;44187;-81
2023/11/13 10:14:35;;;;;;;6.00;4.60;;;;;;;10.49;72.25;99739.63;178589;1269;58819;-80
2023/11/13 10:23:34;;;;;;;5.00;3.70;;;;;;;10.69;70.68;99721.93;156881;1268;45087;-60
2023/11/13 10:27:44;;;;;;;3.30;2.90;;;;;;;10.76;69.08;99712.58;179298;1268;43712;-60
2023/11/13 10:31:52;;;;;;;5.70;2.70;;;;;;;10.83;68.52;99704.63;179164;1267;45915;-61
2023/11/13 10:36:11;;;;;;;3.80;3.20;;;;;;;10.89;68.28;99709.14;179426;1268;57616;-61
2023/11/13 10:40:27;;;;;;;4.80;3.00;;;;;;;10.98;68.69;99710.21;179285;1268;43884;-60
2023/11/13 10:44:38;;;;;;;5.30;2.60;;;;;;;11.03;66.82;99709.73;179559;1268;43650;-60
2023/11/13 10:48:45;;;;;;;3.40;2.70;;;;;;;11.02;66.75;99702.83;179381;1268;44957;-60
2023/11/13 10:52:56;;;;;;;3.00;2.30;;;;;;;11.02;68.13;99700.86;179601;1268;45033;-60
2023/11/13 10:57:03;;;;;;;3.80;2.40;;;;;;;11.01;67.06;99697.36;179538;1268;58287;-60
2023/11/13 11:01:10;;;;;;;3.10;2.30;;;;;;;11.02;65.57;99695.02;179533;1268;45009;-60
2023/11/13 11:05:22;;;;;;;2.70;1.50;;;;;;;11.05;65.94;99689.39;179489;1271;43728;-60
2023/11/13 11:09:27;;;;;;;3.60;1.90;;;;;;;11.04;65.51;99686.80;179417;1268;43959;-62
2023/11/13 11:13:35;;;;;;;2.80;2.00;;;;;;;11.15;66.70;99683.11;179341;1268;43582;-62
2023/11/13 11:17:45;;;;;;;4.80;2.50;;;;;;;11.30;67.88;99684.36;179381;1268;58258;-63
2023/11/13 11:22:00;;;;;;;2.80;1.70;;;;;;;11.40;67.51;99680.30;179623;1268;44578;-64
2023/11/13 11:26:05;;;;;;;4.10;1.90;;;;;;;11.47;66.55;99676.34;179407;1267;43815;-63
2023/11/13 11:30:17;;;;;;;3.80;2.30;;;;;;;11.54;65.42;99679.11;179068;1272;43688;-63
2023/11/13 11:34:22;;;;;;;15.60;8.20;;;;;;;11.59;63.61;99678.78;179223;1268;44118;-62
2023/11/13 11:38:29;;;;;;;104.40;57.30;;;;;;;11.54;62.78;99672.30;179401;1268;58445;-63
2023/11/13 11:42:34;;;;;;;96.70;43.60;;;;;;;11.51;63.69;99663.02;179147;1268;45069;-64
2023/11/13 11:47:03;;;;;;;31.20;16.90;;;;;;;11.51;62.87;99654.52;179233;1268;45982;-63
2023/11/13 11:51:23;;;;;;;34.00;21.60;;;;;;;11.52;61.94;99650.90;179381;1271;46027;-62
2023/11/13 11:55:30;;;;;;;14.80;9.90;;;;;;;11.50;61.28;99647.90;179148;1269;45070;-62
2023/11/13 12:00:26;;;;;;;3.00;2.20;;;;;;;11.48;62.25;99644.16;179143;1267;57375;-63
2023/11/13 12:04:30;;;;;;;1.60;1.20;;;;;;;11.48;62.75;99637.80;179394;1270;43646;-64
2023/11/13 12:08:41;;;;;;;1.90;1.50;;;;;;;11.49;63.10;99629.13;179729;1270;43590;-63
2023/11/13 12:12:47;;;;;;;4.00;1.60;;;;;;;11.49;63.32;99618.73;179335;1271;45986;-63
2023/11/13 12:16:52;;;;;;;4.20;2.40;;;;;;;11.41;64.83;99614.48;179106;1268;44681;-63
2023/11/13 12:20:57;;;;;;;2.30;1.60;;;;;;;11.34;66.34;99604.84;179125;1267;58402;-63
2023/11/13 12:25:06;;;;;;;2.60;2.40;;;;;;;11.25;66.22;99593.08;179106;1267;43646;-63
2023/11/13 12:29:13;;;;;;;2.80;2.20;;;;;;;11.10;66.32;99583.98;179299;1268;45014;-63
2023/11/13 12:33:46;;;;;;;4.70;2.40;;;;;;;11.06;65.90;99571.11;179311;1268;44599;-63
2023/11/13 12:37:52;;;;;;;3.30;2.10;;;;;;;11.07;67.07;99567.27;179430;1268;43788;-63
2023/11/13 12:41:56;;;;;;;4.40;3.00;;;;;;;11.04;66.83;99567.46;179390;1268;59508;-61
2023/11/13 12:46:06;;;;;;;4.00;1.50;;;;;;;10.90;65.25;99560.90;179485;1270;44987;-60
2023/11/13 12:50:21;;;;;;;6.00;2.20;;;;;;;10.69;64.92;99560.71;179124;1270;506832;-59
2023/11/13 12:54:26;;;;;;;;;;;;;;;10.59;64.72;99558.70;179523;1268;45092;-59
2023/11/13 12:58:35;;;;;;;4.10;2.50;;;;;;;10.52;67.20;99543.73;179556;1268;45779;-60
2023/11/13 13:02:43;;;;;;;4.50;4.10;;;;;;;10.44;70.52;99532.67;179250;1269;57685;-59
2023/11/13 13:06:54;;;;;;;6.30;3.50;;;;;;;10.39;72.26;99528.23;179543;1268;43640;-61
2023/11/13 13:10:58;;;;;;;4.40;3.10;;;;;;;10.32;72.29;99523.51;179657;1269;43843;-60
2023/11/13 13:15:32;;;;;;;6.00;4.40;;;;;;;10.19;73.81;99524.37;179696;1268;44074;-60
2023/11/13 13:19:37;;;;;;;6.40;5.40;;;;;;;10.03;76.95;99530.21;179598;1268;46059;-60
2023/11/13 13:23:45;;;;;;;5.80;5.20;;;;;;;9.99;78.94;99531.99;179522;1270;58616;-60
2023/11/13 13:27:48;;;;;;;4.90;4.30;;;;;;;9.98;79.96;99525.73;179259;1270;44959;-59
2023/11/13 13:31:52;;;;;;;9.40;4.90;;;;;;;9.90;80.02;99516.88;179090;1269;43640;-60
2023/11/13 13:35:58;;;;;;;13.40;7.00;;;;;;;9.98;80.68;99509.81;179164;1269;44627;-60
2023/11/13 13:40:08;;;;;;;9.10;7.00;;;;;;;10.00;80.73;99511.55;179584;1269;45922;-59
2023/11/13 13:44:17;;;;;;;6.70;5.40;;;;;;;9.97;81.59;99496.22;179619;1270;58975;-59
2023/11/13 13:48:21;;;;;;;5.00;3.80;;;;;;;9.94;80.29;99488.77;179350;1271;43649;-60
2023/11/13 13:52:29;;;;;;;6.70;4.60;;;;;;;9.90;78.15;99485.23;179716;1269;45959;-60
2023/11/13 13:56:35;;;;;;;7.90;4.90;;;;;;;9.82;76.66;99479.67;179298;1272;45092;-59
2023/11/13 14:00:39;;;;;;;10.00;4.70;;;;;;;9.79;76.97;99482.67;179385;1270;43533;-59
2023/11/13 14:04:52;;;;;;;19.70;9.40;;;;;;;9.66;77.79;99477.59;179571;1271;58484;-59
2023/11/13 14:09:00;;;;;;;114.60;65.60;;;;;;;9.54;79.09;99471.45;179565;1270;44741;-59
2023/11/13 14:13:47;;;;;;;152.20;82.30;;;;;;;9.34;82.48;99469.88;178521;1274;43751;-59
2023/11/13 14:17:52;;;;;;;31.40;14.30;;;;;;;9.13;81.31;99469.08;178404;1274;45092;-59
2023/11/13 14:21:59;;;;;;;20.80;15.20;;;;;;;8.99;80.37;99469.59;178244;1273;44855;-60
2023/11/13 14:26:03;;;;;;;9.80;7.40;;;;;;;8.89;81.94;99455.63;178612;1274;58615;-59
2023/11/13 14:30:32;;;;;;;12.40;4.80;;;;;;;8.81;82.74;99439.02;178725;1270;44814;-59
2023/11/13 14:34:37;;;;;;;5.40;3.90;;;;;;;8.67;85.41;99435.08;179392;1268;44929;-59
2023/11/13 14:38:40;;;;;;;8.90;5.00;;;;;;;8.64;85.63;99430.50;179390;1268;44980;-59
2023/11/13 14:42:46;;;;;;;8.40;7.10;;;;;;;8.61;86.07;99422.33;179372;1268;45948;-58
2023/11/13 14:46:49;;;;;;;14.40;10.40;;;;;;;8.59;87.03;99422.67;179426;1272;60559;-59
2023/11/13 14:50:54;;;;;;;32.80;19.70;;;;;;;8.51;88.18;99413.45;179397;1271;44665;-58
2023/11/13 14:54:58;;;;;;;42.20;23.10;;;;;;;8.33;89.23;99410.73;179286;1269;43567;-59
2023/11/13 14:59:02;;;;;;;45.90;25.00;;;;;;;8.14;89.44;99401.03;179559;1268;44953;-59
2023/11/13 15:03:11;;;;;;;46.50;28.20;;;;;;;8.04;89.61;99391.11;179597;1268;45952;-59
2023/11/13 15:07:18;;;;;;;50.30;28.90;;;;;;;7.92;90.89;99401.84;179403;1268;58950;-59
2023/11/13 15:11:22;;;;;;;82.20;38.30;;;;;;;7.84;91.90;99394.70;179251;1268;43663;-59
2023/11/13 15:15:27;;;;;;;47.20;27.90;;;;;;;7.82;92.45;99375.35;179280;1268;43764;-59
2023/11/13 15:19:34;;;;;;;38.80;20.80;;;;;;;7.74;93.53;99359.58;179101;1268;45952;-59
2023/11/13 15:23:38;;;;;;;25.80;15.60;;;;;;;7.68;94.11;99353.92;179371;1268;44955;-59
2023/11/13 15:27:49;;;;;;;21.50;14.80;;;;;;;7.60;94.67;99348.59;179587;1268;57512;-59
2023/11/13 15:31:54;;;;;;;29.10;13.20;;;;;;;7.47;95.93;99360.95;179158;1268;45929;-59
2023/11/13 15:35:57;;;;;;;18.80;10.10;;;;;;;7.50;95.82;99355.58;179265;1268;44738;-59
2023/11/13 15:40:16;;;;;;;15.00;10.50;;;;;;;7.52;96.16;99348.56;179459;1271;45954;-59
2023/11/13 15:44:19;;;;;;;13.70;9.80;;;;;;;7.57;95.90;99333.27;179511;1268;43560;-59
2023/11/13 15:48:22;;;;;;;15.60;9.60;;;;;;;7.62;95.50;99322.98;179486;1268;58606;-58
2023/11/13 15:52:26;;;;;;;36.20;19.70;;;;;;;7.68;95.15;99312.83;179018;1269;43746;-61
2023/11/13 15:56:30;;;;;;;32.80;16.90;;;;;;;7.63;95.23;99305.67;179254;1268;43608;-58
2023/11/13 16:00:35;;;;;;;21.30;15.30;;;;;;;7.61;95.80;99314.83;179511;1268;43561;-59
2023/11/13 16:04:39;;;;;;;15.20;10.90;;;;;;;7.65;95.61;99297.55;179476;1268;44835;-59
2023/11/13 16:09:14;;;;;;;22.90;17.30;;;;;;;7.71;94.96;99279.19;179295;1270;58462;-59
2023/11/13 16:13:18;;;;;;;26.10;22.50;;;;;;;7.74;94.64;99279.61;179415;1268;45159;-58
2023/11/13 16:17:29;;;;;;;20.40;14.90;;;;;;;7.80;94.16;99275.17;179401;1271;43887;-59
2023/11/13 16:21:35;;;;;;;23.60;15.20;;;;;;;7.78;95.42;99272.55;179515;1268;44006;-58
2023/11/13 16:25:38;;;;;;;19.80;10.30;;;;;;;7.74;96.10;99258.95;179569;1270;45908;-59
2023/11/13 16:29:41;;;;;;;17.00;9.30;;;;;;;7.71;96.45;99251.81;179393;1269;58556;-59
2023/11/13 16:33:45;;;;;;;15.30;10.60;;;;;;;7.77;96.72;99242.61;179564;1270;45925;-59
2023/11/13 16:37:49;;;;;;;16.30;9.90;;;;;;;7.86;96.31;99235.02;179294;1270;44895;-59
2023/11/13 16:41:54;;;;;;;23.00;13.60;;;;;;;7.90;96.65;99227.77;179599;1269;44420;-59
2023/11/13 16:46:06;;;;;;;23.90;15.00;;;;;;;7.97;96.08;99209.35;179418;1268;46012;-59
2023/11/13 16:50:13;;;;;;;19.00;11.50;;;;;;;8.00;95.84;99199.38;179327;1269;58114;-58
2023/11/13 16:54:17;;;;;;;16.20;11.70;;;;;;;8.05;95.75;99202.75;179061;1270;44657;-59
2023/11/13 16:58:20;;;;;;;21.40;15.80;;;;;;;8.10;95.72;99202.16;179320;1270;45000;-59
2023/11/13 17:02:23;;;;;;;26.20;14.50;;;;;;;8.14;96.10;99200.44;179514;1269;44851;-59
2023/11/13 17:07:20;;;;;;;17.80;13.00;;;;;;;8.11;95.89;99197.67;179300;1268;45927;-60
2023/11/13 17:11:25;;;;;;;;;;;;;;;8.11;96.52;99195.21;179532;1268;58666;-59
2023/11/13 17:15:29;;;;;;;14.80;9.30;;;;;;;8.05;97.50;99183.55;179133;1269;45839;-59
2023/11/13 17:19:33;;;;;;;16.00;8.20;;;;;;;8.02;97.85;99180.86;179223;1270;43670;-59
2023/11/13 17:24:08;;;;;;;15.40;11.50;;;;;;;8.04;97.77;99171.11;179544;1268;44971;-59
2023/11/13 17:28:11;;;;;;;16.10;8.60;;;;;;;8.08;98.14;99160.55;179153;1270;43603;-59
2023/11/13 17:32:14;;;;;;;12.60;7.30;;;;;;;8.13;97.85;99142.08;178920;1270;57465;-59
2023/11/13 17:36:22;;;;;;;19.50;14.20;;;;;;;8.18;97.58;99117.10;179335;1270;44975;-60
2023/11/13 17:40:25;;;;;;;16.90;9.70;;;;;;;8.23;97.24;99105.85;179431;1269;43628;-60
2023/11/13 17:44:28;;;;;;;20.80;15.70;;;;;;;8.18;98.19;99102.29;179137;1270;45239;-59
2023/11/13 17:48:32;;;;;;;20.00;11.90;;;;;;;8.10;99.80;99095.40;179172;1270;44922;-59
2023/11/13 17:52:41;;;;;;;23.70;18.00;;;;;;;8.05;99.89;99076.22;179324;1272;58507;-59
2023/11/13 17:56:48;;;;;;;22.50;12.90;;;;;;;8.10;100.00;99066.19;179008;1270;45187;-60
2023/11/13 18:00:53;;;;;;;23.70;15.40;;;;;;;8.06;100.00;99061.08;179248;1270;46044;-59
2023/11/13 18:04:59;;;;;;;21.90;15.60;;;;;;;8.15;100.00;99069.63;179504;1267;46025;-59
2023/11/13 18:09:29;;;;;;;18.20;12.50;;;;;;;8.13;100.00;99071.59;179238;1269;43842;-59
2023/11/13 18:13:34;;;;;;;26.80;12.30;;;;;;;8.18;100.00;99049.25;179398;1268;57520;-60
2023/11/13 18:17:37;;;;;;;13.30;9.50;;;;;;;8.16;100.00;99048.52;179440;1270;46117;-59
2023/11/13 18:21:52;;;;;;;19.40;11.20;;;;;;;8.17;100.00;99039.63;179407;1270;46129;-60
2023/11/13 18:25:57;;;;;;;16.30;10.60;;;;;;;8.13;100.00;99048.42;179492;1270;46440;-60
2023/11/13 18:30:07;;;;;;;17.50;11.90;;;;;;;8.15;100.00;99043.04;179498;1268;43653;-59
2023/11/13 18:34:15;;;;;;;17.70;12.30;;;;;;;8.26;100.00;99018.67;179339;1270;57425;-59
2023/11/13 18:38:25;;;;;;;14.20;10.10;;;;;;;8.33;100.00;99001.12;179537;1267;44508;-60
2023/11/13 18:42:28;;;;;;;17.30;13.10;;;;;;;8.38;100.00;98992.98;179578;1271;46256;-60
2023/11/13 18:46:32;;;;;;;15.90;9.30;;;;;;;8.37;100.00;99001.21;179536;1270;45911;-60
2023/11/13 18:50:36;;;;;;;11.40;8.80;;;;;;;8.33;100.00;98990.99;179513;1268;43564;-60
2023/11/13 18:54:39;;;;;;;15.50;10.20;;;;;;;8.36;100.00;98993.22;179345;1272;58432;-60
2023/11/13 18:58:43;;;;;;;12.70;9.10;;;;;;;8.41;100.00;98990.58;179548;1268;45090;-59
2023/11/13 19:02:50;;;;;;;10.00;8.80;;;;;;;8.45;100.00;98999.08;179418;1270;44585;-60
2023/11/13 19:06:57;;;;;;;17.80;10.10;;;;;;;8.44;100.00;99000.56;179204;1268;43917;-59
2023/11/13 19:11:07;;;;;;;13.20;11.10;;;;;;;8.51;100.00;98989.05;179424;1268;43615;-60
2023/11/13 19:15:11;;;;;;;22.40;13.40;;;;;;;8.46;100.00;98977.23;179732;1267;58797;-59